createdAt,value
2019-03-20T00:00:29.448Z,96409.44
2019-03-20T00:02:58.077Z,96416.45
2019-03-20T00:05:26.684Z,96420.17
2019-03-20T00:07:55.263Z,96416.77
2019-03-20T00:10:23.951Z,96416.19
2019-03-20T00:12:52.491Z,96425.69
2019-03-20T00:15:21.150Z,96419.67
2019-03-20T00:17:49.817Z,96422.50
2019-03-20T00:20:18.510Z,96417.80
2019-03-20T00:22:47.129Z,96420.17
2019-03-20T00:25:15.794Z,96420.09
2019-03-20T00:27:44.415Z,96421.22
2019-03-20T00:30:17.910Z,96418.62
2019-03-20T00:32:46.968Z,96421.05
2019-03-20T00:35:15.652Z,96421.37
2019-03-20T00:37:44.261Z,96420.83
2019-03-20T00:40:15.169Z,96422.41
2019-03-20T00:42:43.839Z,96424.87
2019-03-20T00:45:17.541Z,96427.30
2019-03-20T00:47:46.225Z,96422.19
2019-03-20T00:50:16.336Z,96428.02
2019-03-20T00:52:44.948Z,96427.80
2019-03-20T00:55:14.713Z,96421.70
2019-03-20T00:57:43.928Z,96426.64
2019-03-20T01:00:21.773Z,96427.81
2019-03-20T01:02:50.412Z,96423.98
2019-03-20T01:05:19.236Z,96428.30
2019-03-20T01:07:47.912Z,96429.15
2019-03-20T01:10:21.215Z,96424.13
2019-03-20T01:12:50.434Z,96428.52
2019-03-20T01:15:19.051Z,96422.25
2019-03-20T01:17:47.868Z,96422.97
2019-03-20T01:20:21.163Z,96430.41
2019-03-20T01:22:49.789Z,96428.30
2019-03-20T01:25:20.208Z,96427.53
2019-03-20T01:27:48.915Z,96433.47
2019-03-20T01:30:29.372Z,96434.72
2019-03-20T01:32:58.195Z,96428.61
2019-03-20T01:35:26.765Z,96432.92
2019-03-20T01:37:55.305Z,96429.23
2019-03-20T01:40:23.951Z,96429.77
2019-03-20T01:42:52.501Z,96430.54
2019-03-20T01:45:21.151Z,96436.82
2019-03-20T01:47:49.815Z,96438.97
2019-03-20T01:50:18.468Z,96441.53
2019-03-20T01:52:47.174Z,96435.34
2019-03-20T01:55:15.937Z,96437.53
2019-03-20T01:57:44.568Z,96437.98
2019-03-20T02:00:14.450Z,96444.48
2019-03-20T02:02:43.084Z,96447.17
2019-03-20T02:05:11.836Z,96441.82
2019-03-20T02:07:40.488Z,96445.23
2019-03-20T02:10:15.041Z,96446.77
2019-03-20T02:12:43.693Z,96448.42
2019-03-20T02:15:19.836Z,96449.59
2019-03-20T02:17:48.471Z,96450.85
2019-03-20T02:20:18.388Z,96457.22
2019-03-20T02:22:55.468Z,96456.02
2019-03-20T02:25:24.045Z,96455.02
2019-03-20T02:27:52.560Z,96455.02
2019-03-20T02:30:21.644Z,96454.75
2019-03-20T02:32:50.318Z,96460.67
2019-03-20T02:35:25.548Z,96454.04
2019-03-20T02:37:54.074Z,96458.30
2019-03-20T02:40:22.690Z,96458.38
2019-03-20T02:42:54.596Z,96459.28
2019-03-20T02:45:23.199Z,96462.73
2019-03-20T02:47:51.855Z,96464.87
2019-03-20T02:50:20.533Z,96463.86
2019-03-20T02:52:49.007Z,96466.69
2019-03-20T02:55:17.607Z,96465.20
2019-03-20T02:57:46.103Z,96460.91
2019-03-20T03:00:20.783Z,96468.36
2019-03-20T03:02:49.385Z,96470.47
2019-03-20T03:05:18.650Z,96471.27
2019-03-20T03:07:47.324Z,96473.38
2019-03-20T03:10:19.563Z,96473.55
2019-03-20T03:12:49.649Z,96475.40
2019-03-20T03:15:18.250Z,96481.05
2019-03-20T03:17:46.925Z,96480.81
2019-03-20T03:20:17.098Z,96482.52
2019-03-20T03:22:45.785Z,96480.55
2019-03-20T03:25:15.346Z,96479.30
2019-03-20T03:27:43.987Z,96479.30
2019-03-20T03:30:16.699Z,96485.20
2019-03-20T03:32:45.422Z,96487.32
2019-03-20T03:35:17.812Z,96487.32
2019-03-20T03:37:44.909Z,96485.89
2019-03-20T03:40:18.410Z,96482.47
2019-03-20T03:42:47.200Z,96485.75
2019-03-20T03:45:17.315Z,96495.81
2019-03-20T03:47:46.200Z,96493.30
2019-03-20T03:50:15.300Z,96493.16
2019-03-20T03:52:44.052Z,96491.28
2019-03-20T03:55:13.568Z,96486.17
2019-03-20T03:57:42.635Z,96488.94
2019-03-20T04:00:16.486Z,96485.72
2019-03-20T04:02:45.088Z,96492.27
2019-03-20T04:05:14.424Z,96493.30
2019-03-20T04:07:43.001Z,96492.27
2019-03-20T04:10:13.963Z,96495.41
2019-03-20T04:12:42.617Z,96497.78
2019-03-20T04:15:17.741Z,96495.49
2019-03-20T04:17:49.159Z,96503.73
2019-03-20T04:20:21.140Z,96499.34
2019-03-20T04:22:49.689Z,96499.11
2019-03-20T04:25:18.369Z,96504.80
2019-03-20T04:27:47.095Z,96503.30
2019-03-20T04:30:17.329Z,96506.80
2019-03-20T04:32:45.991Z,96506.26
2019-03-20T04:35:14.874Z,96513.50
2019-03-20T04:37:43.534Z,96514.66
2019-03-20T04:40:14.405Z,96513.72
2019-03-20T04:42:42.947Z,96514.89
2019-03-20T04:45:13.066Z,96516.09
2019-03-20T04:47:41.701Z,96519.85
2019-03-20T04:50:14.163Z,96523.52
2019-03-20T04:52:42.770Z,96526.73
2019-03-20T04:55:12.818Z,96529.47
2019-03-20T04:57:41.453Z,96531.83
2019-03-20T05:00:13.251Z,96534.64
2019-03-20T05:02:41.813Z,96539.05
2019-03-20T05:05:10.519Z,96546.11
2019-03-20T05:07:39.127Z,96539.68
2019-03-20T05:10:10.668Z,96553.66
2019-03-20T05:12:39.238Z,96551.16
2019-03-20T05:15:10.511Z,96553.91
2019-03-20T05:17:39.094Z,96556.47
2019-03-20T05:20:12.620Z,96558.44
2019-03-20T05:22:40.908Z,96559.88
2019-03-20T05:25:09.579Z,96561.82
2019-03-20T05:27:38.242Z,96569.19
2019-03-20T05:30:10.007Z,96571.25
2019-03-20T05:32:38.668Z,96568.73
2019-03-20T05:35:08.499Z,96571.57
2019-03-20T05:37:37.269Z,96580.11
2019-03-20T05:40:14.723Z,96582.09
2019-03-20T05:42:43.327Z,96584.58
2019-03-20T05:45:18.894Z,96587.56
2019-03-20T05:47:47.460Z,96588.97
2019-03-20T05:50:17.179Z,96591.89
2019-03-20T05:52:45.811Z,96592.17
2019-03-20T05:55:15.092Z,96590.83
2019-03-20T05:57:43.805Z,96594.11
2019-03-20T06:00:18.848Z,96592.84
2019-03-20T06:02:47.460Z,96591.95
2019-03-20T06:05:16.064Z,96590.38
2019-03-20T06:07:44.679Z,96589.47
2019-03-20T06:10:15.624Z,96592.61
2019-03-20T06:12:45.731Z,96596.15
2019-03-20T06:15:15.045Z,96594.52
2019-03-20T06:17:43.696Z,96601.33
2019-03-20T06:20:13.737Z,96602.30
2019-03-20T06:22:42.628Z,96609.28
2019-03-20T06:25:13.206Z,96611.30
2019-03-20T06:27:41.990Z,96611.71
2019-03-20T06:30:21.126Z,96604.56
2019-03-20T06:32:50.034Z,96609.89
2019-03-20T06:35:18.641Z,96614.67
2019-03-20T06:37:47.397Z,96614.08
2019-03-20T06:40:17.927Z,96609.88
2019-03-20T06:42:46.753Z,96604.67
2019-03-20T06:45:30.354Z,96615.69
2019-03-20T06:47:56.250Z,96618.76
2019-03-20T06:50:24.755Z,96623.84
2019-03-20T06:52:53.371Z,96619.30
2019-03-20T06:55:22.003Z,96625.45
2019-03-20T06:57:50.559Z,96619.07
2019-03-20T07:00:46.036Z,96619.84
2019-03-20T07:03:29.413Z,96629.08
2019-03-20T07:06:03.969Z,96627.94
2019-03-20T07:08:35.481Z,96625.92
2019-03-20T07:11:05.632Z,96619.86
2019-03-20T07:13:34.233Z,96622.85
2019-03-20T07:16:03.072Z,96631.42
2019-03-20T07:18:31.573Z,96626.44
2019-03-20T07:21:00.312Z,96632.23
2019-03-20T07:23:28.913Z,96630.59
2019-03-20T07:25:57.561Z,96634.18
2019-03-20T07:28:26.128Z,96634.18
2019-03-20T07:30:54.735Z,96637.03
2019-03-20T07:33:25.673Z,96631.95
2019-03-20T07:35:54.509Z,96627.27
2019-03-20T07:38:23.076Z,96629.20
2019-03-20T07:40:51.735Z,96625.40
2019-03-20T07:43:20.762Z,96627.16
2019-03-20T07:45:49.310Z,96626.92
2019-03-20T07:48:22.348Z,96620.69
2019-03-20T07:50:48.215Z,96621.16
2019-03-20T07:53:16.670Z,96623.06
2019-03-20T07:55:45.148Z,96626.03
2019-03-20T07:58:14.021Z,96626.34
2019-03-20T08:00:42.553Z,96610.99
2019-03-20T08:03:11.007Z,96617.17
2019-03-20T08:05:39.547Z,96618.30
2019-03-20T08:08:08.163Z,96628.84
2019-03-20T08:10:37.392Z,96620.34
2019-03-20T08:13:06.024Z,96618.06
2019-03-20T08:15:34.566Z,96619.56
2019-03-20T08:18:03.123Z,96616.83
2019-03-20T08:20:32.129Z,96611.61
2019-03-20T08:23:00.765Z,96616.52
2019-03-20T08:25:29.380Z,96610.22
2019-03-20T08:27:58.033Z,96616.67
2019-03-20T08:30:26.579Z,96629.84
2019-03-20T08:32:55.187Z,96620.06
2019-03-20T08:35:23.809Z,96629.84
2019-03-20T08:37:52.266Z,96631.96
2019-03-20T08:40:20.937Z,96630.53
2019-03-20T08:42:49.540Z,96630.22
2019-03-20T08:45:19.360Z,96631.27
2019-03-20T08:47:47.903Z,96627.45
2019-03-20T08:50:20.817Z,96630.19
2019-03-20T08:52:49.989Z,96639.23
2019-03-20T08:55:19.595Z,96655.46
2019-03-20T08:57:48.247Z,96652.34
2019-03-20T09:00:21.351Z,96646.77
2019-03-20T09:02:50.643Z,96657.02
2019-03-20T09:05:19.350Z,96647.87
2019-03-20T09:07:47.956Z,96651.17
2019-03-20T09:10:21.918Z,96655.17
2019-03-20T09:12:50.672Z,96663.89
2019-03-20T09:15:20.173Z,96669.12
2019-03-20T09:17:48.782Z,96660.93
2019-03-20T09:20:22.984Z,96666.07
2019-03-20T09:22:51.517Z,96653.75
2019-03-20T09:25:22.294Z,96658.64
2019-03-20T09:27:50.839Z,96664.98
2019-03-20T09:30:28.892Z,96668.98
2019-03-20T09:32:57.493Z,96671.52
2019-03-20T09:35:26.113Z,96669.94
2019-03-20T09:37:58.154Z,96679.75
2019-03-20T09:40:27.897Z,96679.73
2019-03-20T09:43:01.034Z,96684.66
2019-03-20T09:45:26.831Z,96675.12
2019-03-20T09:47:55.443Z,96675.77
2019-03-20T09:50:25.365Z,96675.76
2019-03-20T09:52:53.950Z,96675.98
2019-03-20T09:55:22.558Z,96673.11
2019-03-20T09:57:51.168Z,96678.63
2019-03-20T10:00:29.589Z,96681.44
2019-03-20T10:02:58.203Z,96681.16
2019-03-20T10:05:26.811Z,96689.16
2019-03-20T10:07:55.417Z,96689.53
2019-03-20T10:10:26.392Z,96690.76
2019-03-20T10:12:55.015Z,96692.45
2019-03-20T10:15:30.322Z,96691.81
2019-03-20T10:17:58.860Z,96693.26
2019-03-20T10:20:27.564Z,96698.17
2019-03-20T10:22:56.203Z,96703.66
2019-03-20T10:25:24.809Z,96710.95
2019-03-20T10:27:53.426Z,96713.45
2019-03-20T10:30:23.634Z,96713.08
2019-03-20T10:32:52.252Z,96709.22
2019-03-20T10:35:20.958Z,96705.88
2019-03-20T10:37:49.568Z,96712.84
2019-03-20T10:40:22.100Z,96713.95
2019-03-20T10:42:50.804Z,96716.31
2019-03-20T10:45:20.135Z,96709.81
2019-03-20T10:47:49.402Z,96710.55
2019-03-20T10:50:31.286Z,96718.13
2019-03-20T10:53:00.064Z,96711.23
2019-03-20T10:55:28.579Z,96707.38
2019-03-20T10:57:57.106Z,96703.52
2019-03-20T11:00:26.948Z,96713.95
2019-03-20T11:02:57.070Z,96713.71
2019-03-20T11:05:25.931Z,96716.09
2019-03-20T11:07:54.474Z,96712.77
2019-03-20T11:10:29.060Z,96716.58
2019-03-20T11:12:57.638Z,96715.31
2019-03-20T11:15:29.629Z,96714.55
2019-03-20T11:17:57.222Z,96710.10
2019-03-20T11:20:26.527Z,96712.95
2019-03-20T11:22:55.057Z,96710.52
2019-03-20T11:25:30.281Z,96707.92
2019-03-20T11:28:01.268Z,96706.65
2019-03-20T11:30:36.313Z,96700.88
2019-03-20T11:33:04.979Z,96693.87
2019-03-20T11:35:35.032Z,96692.80
2019-03-20T11:38:03.564Z,96698.27
2019-03-20T11:40:33.850Z,96704.24
2019-03-20T11:43:02.539Z,96696.42
2019-03-20T11:45:31.137Z,96697.70
2019-03-20T11:47:59.745Z,96697.12
2019-03-20T11:50:38.980Z,96697.55
2019-03-20T11:53:08.291Z,96693.56
2019-03-20T11:55:38.200Z,96701.49
2019-03-20T11:58:07.855Z,96691.92
2019-03-20T12:00:36.542Z,96691.84
2019-03-20T12:03:07.966Z,96691.84
2019-03-20T12:05:36.594Z,96693.39
2019-03-20T12:08:05.202Z,96695.78
2019-03-20T12:10:34.313Z,96688.75
2019-03-20T12:13:02.914Z,96685.73
2019-03-20T12:15:31.484Z,96688.80
2019-03-20T12:18:00.184Z,96684.14
2019-03-20T12:20:28.787Z,96688.75
2019-03-20T12:22:57.436Z,96681.70
2019-03-20T12:25:30.967Z,96684.03
2019-03-20T12:27:59.574Z,96680.95
2019-03-20T12:30:32.637Z,96683.23
2019-03-20T12:33:01.233Z,96683.08
2019-03-20T12:35:46.919Z,96681.48
2019-03-20T12:38:15.687Z,96685.30
2019-03-20T12:40:44.405Z,96689.17
2019-03-20T12:43:13.041Z,96689.28
2019-03-20T12:45:41.719Z,96687.89
2019-03-20T12:48:13.228Z,96682.68
2019-03-20T12:50:41.880Z,96687.70
2019-03-20T12:53:13.635Z,96686.81
2019-03-20T12:55:42.195Z,96689.83
2019-03-20T12:58:10.693Z,96684.36
2019-03-20T13:00:39.323Z,96681.72
2019-03-20T13:03:07.985Z,96676.69
2019-03-20T13:05:36.670Z,96670.45
2019-03-20T13:08:06.226Z,96673.72
2019-03-20T13:10:35.206Z,96677.10
2019-03-20T13:13:03.840Z,96688.00
2019-03-20T13:15:33.539Z,96685.63
2019-03-20T13:18:02.571Z,96686.18
2019-03-20T13:20:31.215Z,96685.14
2019-03-20T13:23:17.746Z,96688.42
2019-03-20T13:25:46.386Z,96694.52
2019-03-20T13:28:14.996Z,96693.04
2019-03-20T13:31:01.635Z,96693.45
2019-03-20T13:33:30.251Z,96689.42
2019-03-20T13:35:58.785Z,96689.07
2019-03-20T13:38:27.400Z,96685.52
2019-03-20T13:40:56.013Z,96683.66
2019-03-20T13:43:24.538Z,96690.17
2019-03-20T13:45:53.152Z,96687.91
2019-03-20T13:48:21.749Z,96680.65
2019-03-20T13:50:53.154Z,96679.53
2019-03-20T13:53:23.376Z,96679.05
2019-03-20T13:55:52.012Z,96680.63
2019-03-20T13:58:22.217Z,96681.06
2019-03-20T14:00:50.754Z,96689.91
2019-03-20T14:03:19.292Z,96684.23
2019-03-20T14:05:47.825Z,96684.61
2019-03-20T14:08:16.363Z,96683.86
2019-03-20T14:10:50.290Z,96678.37
2019-03-20T14:13:15.224Z,96685.72
2019-03-20T14:15:43.834Z,96678.57
2019-03-20T14:18:15.490Z,96681.16
2019-03-20T14:20:44.038Z,96682.72
2019-03-20T14:23:12.692Z,96681.70
2019-03-20T14:25:41.303Z,96682.44
2019-03-20T14:28:09.948Z,96681.16
2019-03-20T14:30:38.622Z,96678.16
2019-03-20T14:33:07.236Z,96675.28
2019-03-20T14:35:35.779Z,96679.58
2019-03-20T14:38:04.555Z,96681.22
2019-03-20T14:40:36.655Z,96676.88
2019-03-20T14:43:05.723Z,96679.10
2019-03-20T14:45:34.383Z,96677.30
2019-03-20T14:48:04.513Z,96685.28
2019-03-20T14:50:36.273Z,96686.34
2019-03-20T14:53:04.075Z,96681.95
2019-03-20T14:55:32.640Z,96689.05
2019-03-20T14:58:01.281Z,96687.30
2019-03-20T15:00:30.893Z,96689.47
2019-03-20T15:02:59.920Z,96687.30
2019-03-20T15:05:28.524Z,96682.53
2019-03-20T15:07:57.160Z,96684.05
2019-03-20T15:10:29.262Z,96683.57
2019-03-20T15:12:57.857Z,96689.02
2019-03-20T15:15:45.070Z,96697.78
2019-03-20T15:18:15.263Z,96701.00
2019-03-20T15:20:43.867Z,96705.52
2019-03-20T15:23:13.772Z,96706.81
2019-03-20T15:25:42.368Z,96697.73
2019-03-20T15:28:11.005Z,96692.53
2019-03-20T15:30:39.475Z,96701.73
2019-03-20T15:33:07.945Z,96706.25
2019-03-20T15:35:36.550Z,96701.12
2019-03-20T15:38:05.364Z,96702.80
2019-03-20T15:40:33.964Z,96706.13
2019-03-20T15:43:02.554Z,96710.38
2019-03-20T15:45:31.111Z,96708.66
2019-03-20T15:47:59.717Z,96709.80
2019-03-20T15:50:28.725Z,96694.45
2019-03-20T15:52:57.633Z,96712.48
2019-03-20T15:55:34.216Z,96707.66
2019-03-20T15:58:06.212Z,96709.11
2019-03-20T16:00:35.220Z,96705.48
2019-03-20T16:03:32.622Z,96706.17
2019-03-20T16:06:01.222Z,96708.08
2019-03-20T16:08:29.831Z,96708.69
2019-03-20T16:11:06.131Z,96705.58
2019-03-20T16:13:28.686Z,96706.63
2019-03-20T16:15:57.291Z,96700.94
2019-03-20T16:18:25.901Z,96707.14
2019-03-20T16:20:55.865Z,96712.48
2019-03-20T16:23:24.354Z,96708.90
2019-03-20T16:25:52.875Z,96713.33
2019-03-20T16:28:21.489Z,96712.70
2019-03-20T16:30:50.029Z,96718.41
2019-03-20T16:33:18.562Z,96716.13
2019-03-20T16:35:47.135Z,96723.17
2019-03-20T16:38:15.687Z,96726.83
2019-03-20T16:40:44.292Z,96728.14
2019-03-20T16:43:12.832Z,96733.32
2019-03-20T16:45:41.475Z,96732.59
2019-03-20T16:48:10.009Z,96733.48
2019-03-20T16:50:38.602Z,96731.39
2019-03-20T16:53:07.102Z,96732.28
2019-03-20T16:55:35.679Z,96738.34
2019-03-20T16:58:04.475Z,96746.81
2019-03-20T17:00:34.086Z,96745.56
2019-03-20T17:03:02.725Z,96746.90
2019-03-20T17:05:32.147Z,96747.52
2019-03-20T17:08:12.602Z,96752.58
2019-03-20T17:10:42.112Z,96750.58
2019-03-20T17:13:10.897Z,96752.39
2019-03-20T17:15:43.793Z,96759.07
2019-03-20T17:18:12.394Z,96761.95
2019-03-20T17:20:41.127Z,96766.61
2019-03-20T17:23:09.735Z,96771.73
2019-03-20T17:25:38.338Z,96774.30
2019-03-20T17:28:07.493Z,96780.24
2019-03-20T17:30:44.110Z,96783.32
2019-03-20T17:33:12.875Z,96786.32
2019-03-20T17:35:41.479Z,96785.13
2019-03-20T17:38:10.155Z,96785.26
2019-03-20T17:40:38.871Z,96791.38
2019-03-20T17:43:07.667Z,96796.16
2019-03-20T17:45:36.780Z,96805.20
2019-03-20T17:48:06.008Z,96798.08
2019-03-20T17:50:35.427Z,96799.42
2019-03-20T17:53:07.066Z,96795.89
2019-03-20T17:55:35.794Z,96801.47
2019-03-20T17:58:05.273Z,96799.92
2019-03-20T18:00:48.271Z,96798.09
2019-03-20T18:03:16.901Z,96805.09
2019-03-20T18:05:45.684Z,96799.11
2019-03-20T18:08:14.644Z,96809.28
2019-03-20T18:10:44.707Z,96812.12
2019-03-20T18:13:13.395Z,96806.95
2019-03-20T18:15:42.084Z,96814.04
2019-03-20T18:18:10.796Z,96817.82
2019-03-20T18:20:39.385Z,96820.63
2019-03-20T18:23:08.680Z,96817.24
2019-03-20T18:25:37.386Z,96823.79
2019-03-20T18:28:06.177Z,96828.63
2019-03-20T18:30:42.691Z,96821.09
2019-03-20T18:33:11.325Z,96818.31
2019-03-20T18:35:39.943Z,96822.33
2019-03-20T18:38:08.929Z,96820.53
2019-03-20T18:40:37.605Z,96817.48
2019-03-20T18:43:06.249Z,96817.72
2019-03-20T18:45:34.925Z,96824.75
2019-03-20T18:48:03.563Z,96820.83
2019-03-20T18:50:32.187Z,96827.45
2019-03-20T18:53:00.768Z,96830.16
2019-03-20T18:55:29.378Z,96834.59
2019-03-20T18:57:57.991Z,96831.31
2019-03-20T19:00:28.110Z,96842.34
2019-03-20T19:03:17.198Z,96845.18
2019-03-20T19:05:51.306Z,96844.81
2019-03-20T19:08:20.138Z,96842.20
2019-03-20T19:10:48.884Z,96847.78
2019-03-20T19:13:17.478Z,96853.77
2019-03-20T19:15:46.247Z,96859.52
2019-03-20T19:18:14.836Z,96863.39
2019-03-20T19:20:43.466Z,96861.36
2019-03-20T19:23:12.269Z,96866.80
2019-03-20T19:25:41.132Z,96866.63
2019-03-20T19:28:09.794Z,96868.61
2019-03-20T19:30:38.430Z,96867.66
2019-03-20T19:33:07.056Z,96871.21
2019-03-20T19:35:35.626Z,96866.66
2019-03-20T19:38:06.499Z,96873.98
2019-03-20T19:40:34.798Z,96873.34
2019-03-20T19:43:03.419Z,96874.91
2019-03-20T19:45:32.105Z,96874.77
2019-03-20T19:48:00.789Z,96869.10
2019-03-20T19:50:29.367Z,96874.14
2019-03-20T19:52:57.931Z,96876.56
2019-03-20T19:55:26.670Z,96878.94
2019-03-20T19:57:55.233Z,96889.63
2019-03-20T20:00:25.941Z,96886.50
2019-03-20T20:02:54.555Z,96887.18
2019-03-20T20:05:23.295Z,96889.33
2019-03-20T20:07:51.917Z,96880.89
2019-03-20T20:10:21.639Z,96881.91
2019-03-20T20:12:50.483Z,96879.16
2019-03-20T20:15:21.847Z,96883.23
2019-03-20T20:17:50.476Z,96877.91
2019-03-20T20:20:20.887Z,96875.16
2019-03-20T20:22:50.764Z,96874.60
2019-03-20T20:25:19.422Z,96869.08
2019-03-20T20:27:48.035Z,96879.84
2019-03-20T20:30:20.493Z,96876.47
2019-03-20T20:32:49.164Z,96877.09
2019-03-20T20:35:18.180Z,96884.08
2019-03-20T20:37:47.883Z,96887.36
2019-03-20T20:40:21.944Z,96884.61
2019-03-20T20:42:50.501Z,96883.29
2019-03-20T20:45:19.135Z,96889.02
2019-03-20T20:47:47.788Z,96886.33
2019-03-20T20:50:17.488Z,96894.11
2019-03-20T20:52:46.828Z,96886.08
2019-03-20T20:55:23.422Z,96878.93
2019-03-20T20:57:52.435Z,96877.98
2019-03-20T21:00:28.499Z,96877.18
2019-03-20T21:02:57.000Z,96878.08
2019-03-20T21:05:25.617Z,96869.64
2019-03-20T21:07:54.224Z,96874.67
2019-03-20T21:10:23.844Z,96882.16
2019-03-20T21:12:56.579Z,96890.30
2019-03-20T21:15:34.535Z,96884.81
2019-03-20T21:18:14.778Z,96888.49
2019-03-20T21:20:48.349Z,96897.20
2019-03-20T21:23:38.014Z,96901.20
2019-03-20T21:26:18.698Z,96898.35
2019-03-20T21:29:23.518Z,96915.20
2019-03-20T21:32:17.445Z,96913.38
2019-03-20T21:35:04.217Z,96912.06
2019-03-20T21:37:53.802Z,96911.72
2019-03-20T21:40:22.415Z,96913.58
2019-03-20T21:43:27.240Z,96918.73
2019-03-20T21:46:01.513Z,96915.27
2019-03-20T21:48:30.117Z,96918.18
2019-03-20T21:51:11.542Z,96918.94
2019-03-20T21:53:48.359Z,96915.02
2019-03-20T21:56:38.150Z,96917.03
2019-03-20T21:59:15.463Z,96910.29
2019-03-20T22:01:58.948Z,96912.14
2019-03-20T22:04:27.520Z,96915.35
2019-03-20T22:07:12.550Z,96918.47
2019-03-20T22:09:52.965Z,96914.99
2019-03-20T22:12:30.318Z,96915.30
2019-03-20T22:15:19.978Z,96914.23
2019-03-20T22:17:51.497Z,96914.33
2019-03-20T22:20:31.914Z,96909.97
2019-03-20T22:23:24.583Z,96911.86
2019-03-20T22:26:01.662Z,96906.64
2019-03-20T22:28:38.835Z,96911.23
2019-03-20T22:31:07.307Z,96918.11
2019-03-20T22:34:11.911Z,96920.05
2019-03-20T22:36:40.931Z,96916.75
2019-03-20T22:39:12.451Z,96925.38
2019-03-20T22:42:00.714Z,96921.80
2019-03-20T22:44:29.264Z,96915.86
2019-03-20T22:47:33.887Z,96914.90
2019-03-20T22:50:35.291Z,96916.32
2019-03-20T22:53:22.087Z,96920.65
2019-03-20T22:56:02.439Z,96918.63
2019-03-20T22:58:43.856Z,96917.67
2019-03-20T23:01:21.314Z,96917.97
2019-03-20T23:03:55.453Z,96921.08
2019-03-20T23:06:24.005Z,96931.31
2019-03-20T23:08:52.561Z,96927.20
2019-03-20T23:11:21.101Z,96914.39
2019-03-20T23:13:51.114Z,96922.58
2019-03-20T23:16:21.510Z,96927.13
2019-03-20T23:18:50.113Z,96927.99
2019-03-20T23:21:18.829Z,96918.25
2019-03-20T23:23:47.463Z,96918.81
2019-03-20T23:26:16.067Z,96919.90
2019-03-20T23:28:44.655Z,96920.19
2019-03-20T23:31:13.395Z,96919.63
2019-03-20T23:33:42.084Z,96932.17
2019-03-20T23:36:10.797Z,96925.34
2019-03-20T23:38:39.480Z,96919.45
2019-03-20T23:41:08.091Z,96918.66
2019-03-20T23:43:36.779Z,96933.03
2019-03-20T23:46:07.230Z,96937.09
2019-03-20T23:48:38.777Z,96934.23
2019-03-20T23:51:16.354Z,96942.25
2019-03-20T23:53:47.664Z,96948.05
2019-03-20T23:56:16.287Z,96952.11
2019-03-20T23:58:44.975Z,96958.20
